Time;durP1;ratioP1;P1;durP2;ratioP2;P2;SDS_P1;SDS_P2;PMS_P1;PMS_P2;Temp;Humidity;BMP_temperature;BMP_pressure;BME280_temperature;BME280_humidity;BME280_pressure;Samples;Min_cycle;Max_cycle;Signal;HPM_P1;HPM_P2
2023/09/16 00:00:19;;;;;;;6.68;5.63;;;13.70;1.00;;;;;;5107852;28;20523;-90
2023/09/16 00:02:48;;;;;;;6.50;6.00;;;14.30;1.00;;;;;;5097765;28;20496;-90
2023/09/16 00:05:17;;;;;;;6.68;5.72;;;13.60;1.00;;;;;;5113943;28;20043;-90
2023/09/16 00:07:48;;;;;;;9.57;5.18;;;13.60;1.00;;;;;;5108291;28;20050;-90
2023/09/16 00:10:19;;;;;;;5.82;5.20;;;13.50;1.00;;;;;;5082231;28;20498;-90
2023/09/16 00:12:54;;;;;;;5.35;4.85;;;14.60;1.00;;;;;;5082158;28;20044;-91
2023/09/16 00:15:21;;;;;;;5.47;4.97;;;13.50;1.00;;;;;;5099286;28;20071;-90
2023/09/16 00:17:55;;;;;;;6.32;5.20;;;13.40;1.00;;;;;;5099023;28;20044;-90
2023/09/16 00:20:21;;;;;;;5.38;4.88;;;13.50;1.00;;;;;;5092418;27;20155;-90
2023/09/16 00:22:47;;;;;;;6.70;6.10;;;13.30;1.00;;;;;;5100435;28;20059;-91
2023/09/16 00:25:15;;;;;;;6.05;5.28;;;13.30;1.00;;;;;;5075981;28;20071;-90
2023/09/16 00:27:48;;;;;;;6.22;5.60;;;13.30;1.00;;;;;;5043135;28;20051;-90
2023/09/16 00:30:14;;;;;;;7.32;6.03;;;13.30;1.00;;;;;;5061530;28;20457;-90
2023/09/16 00:32:44;;;;;;;5.50;5.03;;;13.20;1.00;;;;;;5059959;28;20040;-90
2023/09/16 00:35:12;;;;;;;5.80;5.20;;;13.20;1.00;;;;;;5050148;28;20476;-90
2023/09/16 00:37:43;;;;;;;5.13;4.68;;;13.20;1.00;;;;;;5059657;28;20059;-91
2023/09/16 00:40:20;;;;;;;8.32;5.72;;;13.20;1.00;;;;;;5043618;28;20102;-90
2023/09/16 00:42:48;;;;;;;;;;;13.20;1.00;;;;;;5059984;28;20048;-90
2023/09/16 00:45:14;;;;;;;6.70;4.72;;;13.10;1.00;;;;;;5059557;28;19981;-90
2023/09/16 00:47:41;;;;;;;6.63;4.90;;;13.10;1.00;;;;;;5092381;28;20471;-90
2023/09/16 00:50:17;;;;;;;5.95;5.18;;;13.10;1.00;;;;;;5058984;28;20377;-90
2023/09/16 00:53:12;;;;;;;5.60;4.82;;;13.10;1.00;;;;;;5082647;28;20046;-90
2023/09/16 00:55:46;;;;;;;6.40;5.65;;;13.10;1.00;;;;;;5118863;28;20047;-91
2023/09/16 00:58:17;;;;;;;7.00;5.65;;;13.20;1.00;;;;;;5099930;28;20051;-89
2023/09/16 01:00:45;;;;;;;6.22;5.63;;;13.10;1.00;;;;;;5085791;28;20051;-90
2023/09/16 01:03:15;;;;;;;6.53;5.00;;;13.10;1.00;;;;;;5071000;28;20048;-89
2023/09/16 01:05:48;;;;;;;5.82;5.32;;;13.00;1.00;;;;;;5075625;28;20047;-89
2023/09/16 01:08:15;;;;;;;7.10;5.15;;;12.80;1.00;;;;;;5077585;28;20144;-90
2023/09/16 01:14:33;;;;;;;7.28;5.13;;;13.00;1.00;;;;;;5097553;28;20495;-90
2023/09/16 01:20:34;;;;;;;5.88;5.32;;;12.90;1.00;;;;;;5076665;28;20052;-90
2023/09/16 01:23:00;;;;;;;5.03;4.55;;;12.90;1.00;;;;;;5079047;28;20070;-89
2023/09/16 01:25:27;;;;;;;6.82;5.10;;;12.80;1.00;;;;;;5051647;28;20479;-90
2023/09/16 01:27:53;;;;;;;5.63;5.07;;;12.80;1.00;;;;;;5099253;28;20402;-90
2023/09/16 01:30:19;;;;;;;5.57;4.97;;;12.80;1.00;;;;;;5082308;28;20157;-90
2023/09/16 01:33:28;;;;;;;6.10;5.50;;;12.80;1.00;;;;;;5099231;28;20135;-89
2023/09/16 01:43:06;;;;;;;5.45;4.95;;;12.80;1.00;;;;;;5116936;28;20038;-89
2023/09/16 01:45:44;;;;;;;6.25;5.07;;;12.80;1.00;;;;;;5081947;28;20039;-89
2023/09/16 01:48:11;;;;;;;6.60;4.90;;;12.80;1.00;;;;;;5082064;28;20043;-89
2023/09/16 01:50:37;;;;;;;5.50;4.88;;;12.80;1.00;;;;;;5081615;28;20158;-89
2023/09/16 01:53:06;;;;;;;6.07;5.47;;;12.80;1.00;;;;;;5099739;28;20371;-89
2023/09/16 01:55:33;;;;;;;5.95;5.45;;;12.80;1.00;;;;;;5082183;28;20036;-89
2023/09/16 01:57:58;;;;;;;6.47;5.88;;;12.80;1.00;;;;;;5099269;28;20435;-90
2023/09/16 02:00:24;;;;;;;6.83;6.13;;;12.80;1.00;;;;;;5071952;28;20074;-89
2023/09/16 02:02:51;;;;;;;6.30;5.50;;;12.80;1.00;;;;;;5044942;28;20106;-89
2023/09/16 02:05:17;;;;;;;6.40;5.80;;;12.80;1.00;;;;;;5045179;28;20109;-90
2023/09/16 02:07:42;;;;;;;6.00;5.50;;;12.80;1.00;;;;;;5061661;28;20044;-90
2023/09/16 02:10:09;;;;;;;6.00;5.40;;;12.80;1.00;;;;;;5078449;28;20098;-90
2023/09/16 02:12:38;;;;;;;6.07;5.53;;;13.10;1.00;;;;;;5078960;28;20098;-90
2023/09/16 02:15:09;;;;;;;5.90;5.30;;;12.80;1.00;;;;;;5046167;28;20386;-90
2023/09/16 02:17:41;;;;;;;5.82;5.22;;;12.70;1.00;;;;;;5056620;28;20055;-90
2023/09/16 02:20:11;;;;;;;5.80;5.25;;;12.80;1.00;;;;;;5061347;28;20056;-90
2023/09/16 02:22:40;;;;;;;6.05;5.40;;;12.60;1.00;;;;;;5105213;27;20145;-90
2023/09/16 02:25:15;;;;;;;6.05;5.45;;;12.60;1.00;;;;;;5097135;27;20040;-90
2023/09/16 02:27:41;;;;;;;7.80;6.90;;;12.60;1.00;;;;;;5084644;28;20136;-90
2023/09/16 02:30:09;;;;;;;6.70;6.00;;;12.60;1.00;;;;;;5061493;28;20551;-90
2023/09/16 02:32:35;;;;;;;6.97;5.45;;;12.70;1.00;;;;;;5077946;28;20182;-90
2023/09/16 02:35:01;;;;;;;5.50;4.73;;;12.60;1.00;;;;;;5061223;28;20539;-90
2023/09/16 02:37:30;;;;;;;6.67;5.73;;;12.60;1.00;;;;;;5061095;28;20630;-89
2023/09/16 02:39:58;;;;;;;5.97;5.38;;;12.10;1.00;;;;;;5078004;28;20047;-90
2023/09/16 02:42:32;;;;;;;6.25;5.65;;;12.50;1.00;;;;;;5045865;28;20131;-89
2023/09/16 02:45:01;;;;;;;6.43;5.82;;;12.50;1.00;;;;;;5060486;28;20048;-91
2023/09/16 02:47:29;;;;;;;7.10;6.47;;;12.50;1.00;;;;;;5061319;28;20048;-90
2023/09/16 02:49:55;;;;;;;7.22;6.55;;;12.70;1.00;;;;;;5062093;28;20066;-89
2023/09/16 02:52:28;;;;;;;8.18;6.28;;;12.40;1.00;;;;;;5061341;28;20040;-91
2023/09/16 02:54:57;;;;;;;6.22;5.72;;;12.40;1.00;;;;;;5077587;28;20044;-90
2023/09/16 02:57:25;;;;;;;6.57;5.93;;;12.40;1.00;;;;;;5060953;28;20138;-93
2023/09/16 02:59:53;;;;;;;7.20;6.50;;;12.40;1.00;;;;;;5072613;28;20076;-90
2023/09/16 03:02:22;;;;;;;8.40;5.72;;;12.30;1.00;;;;;;5061794;28;20044;-89
2023/09/16 03:04:50;;;;;;;6.35;5.75;;;12.40;1.00;;;;;;5060163;28;20487;-90
2023/09/16 03:07:18;;;;;;;8.60;5.50;;;12.40;1.00;;;;;;5076854;28;20488;-90
2023/09/16 03:09:44;;;;;;;6.78;5.70;;;12.30;1.00;;;;;;5043632;28;20388;-90
2023/09/16 03:12:10;;;;;;;12.90;6.20;;;12.40;1.00;;;;;;5059883;28;20056;-89
2023/09/16 03:14:38;;;;;;;8.83;5.87;;;12.30;1.00;;;;;;5076423;27;20043;-89
2023/09/16 03:17:06;;;;;;;6.20;5.60;;;12.20;1.00;;;;;;5100521;27;20047;-90
2023/09/16 03:19:37;;;;;;;8.23;6.75;;;12.20;1.00;;;;;;5116874;27;20475;-89
2023/09/16 03:22:03;;;;;;;6.88;6.28;;;12.20;1.00;;;;;;5083721;27;20047;-89
2023/09/16 03:24:31;;;;;;;7.38;6.40;;;12.20;1.00;;;;;;5105559;28;20040;-90
2023/09/16 03:26:57;;;;;;;8.75;7.18;;;12.10;1.00;;;;;;5079669;27;20506;-90
2023/09/16 03:29:26;;;;;;;6.20;5.60;;;12.10;1.00;;;;;;5114072;27;20130;-90
2023/09/16 03:31:51;;;;;;;8.05;6.88;;;12.10;1.00;;;;;;5078882;28;20039;-90
2023/09/16 03:34:17;;;;;;;7.13;6.43;;;12.10;1.00;;;;;;5080114;28;20048;-90
2023/09/16 03:36:43;;;;;;;6.50;5.90;;;12.10;1.00;;;;;;5096963;28;20399;-89
2023/09/16 03:39:09;;;;;;;6.70;6.10;;;12.00;1.00;;;;;;5096995;28;20039;-89
2023/09/16 03:41:35;;;;;;;7.33;6.30;;;11.50;1.00;;;;;;5097266;28;20131;-90
2023/09/16 03:44:01;;;;;;;6.68;6.00;;;11.90;1.00;;;;;;5097783;28;20227;-90
2023/09/16 03:46:35;;;;;;;9.57;7.20;;;12.00;1.00;;;;;;5096783;28;20043;-90
2023/09/16 03:53:18;;;;;;;7.25;6.55;;;12.00;1.00;;;;;;5115098;28;20122;-89
2023/09/16 03:55:44;;;;;;;7.82;7.10;;;12.00;1.00;;;;;;5097522;28;20086;-89
2023/09/16 03:58:09;;;;;;;7.37;6.57;;;12.00;1.00;;;;;;5079630;28;20079;-89
2023/09/16 04:00:38;;;;;;;8.67;7.87;;;12.00;1.00;;;;;;5079539;27;20398;-89
2023/09/16 04:03:04;;;;;;;8.27;7.30;;;12.00;1.00;;;;;;5096626;28;20074;-89
2023/09/16 04:05:30;;;;;;;8.30;7.43;;;11.90;1.00;;;;;;5079574;28;20047;-89
2023/09/16 04:07:55;;;;;;;8.00;7.30;;;11.90;1.00;;;;;;5096596;28;20130;-89
2023/09/16 04:10:21;;;;;;;7.70;6.90;;;11.90;1.00;;;;;;5046443;28;20055;-89
2023/09/16 04:12:47;;;;;;;8.47;7.60;;;11.90;1.00;;;;;;5063111;28;20044;-89
2023/09/16 04:15:12;;;;;;;8.73;6.03;;;11.90;1.00;;;;;;5080566;28;20071;-90
2023/09/16 04:17:38;;;;;;;7.77;6.97;;;11.90;1.00;;;;;;5047543;28;20048;-89
2023/09/16 04:20:05;;;;;;;7.10;6.40;;;11.80;1.00;;;;;;5063762;28;20043;-89
2023/09/16 04:22:32;;;;;;;6.78;6.07;;;11.80;1.00;;;;;;5063180;28;20055;-90
2023/09/16 04:24:57;;;;;;;8.60;7.38;;;11.80;1.00;;;;;;5079477;28;20078;-89
2023/09/16 04:27:26;;;;;;;7.37;6.67;;;11.80;1.00;;;;;;5080360;28;20120;-89
2023/09/16 04:29:51;;;;;;;6.80;6.18;;;11.80;1.00;;;;;;5066491;28;20058;-89
2023/09/16 04:32:17;;;;;;;6.00;5.50;;;11.80;1.00;;;;;;5108478;28;20040;-89
2023/09/16 04:34:42;;;;;;;6.40;5.80;;;11.70;1.00;;;;;;5046067;28;20100;-90
2023/09/16 04:37:16;;;;;;;6.77;6.17;;;11.70;1.00;;;;;;5079480;28;20040;-89
2023/09/16 04:39:42;;;;;;;8.02;7.25;;;11.70;1.00;;;;;;5063489;28;20048;-89
2023/09/16 04:42:08;;;;;;;6.63;5.75;;;11.70;1.00;;;;;;5072682;28;20048;-89
2023/09/16 04:44:39;;;;;;;6.35;5.75;;;11.70;1.00;;;;;;5079648;28;20048;-89
2023/09/16 04:47:17;;;;;;;15.15;6.13;;;11.70;1.00;;;;;;5080736;28;20392;-89
2023/09/16 04:49:48;;;;;;;5.90;5.30;;;11.60;1.00;;;;;;5080074;28;20044;-89
2023/09/16 04:52:58;;;;;;;6.97;6.28;;;12.10;1.00;;;;;;5022648;28;20448;-89
2023/09/16 04:58:56;;;;;;;5.90;5.13;;;11.60;1.00;;;;;;5059512;28;20060;-89
2023/09/16 05:01:23;;;;;;;5.83;5.27;;;11.50;1.00;;;;;;5026608;28;20061;-89
2023/09/16 05:04:13;;;;;;;5.55;5.05;;;11.50;1.00;;;;;;5042086;28;20052;-89
2023/09/16 05:10:20;;;;;;;5.82;5.35;;;11.50;1.00;;;;;;5076251;28;20035;-89
2023/09/16 05:12:45;;;;;;;7.00;5.70;;;11.40;1.00;;;;;;5042323;28;20504;-89
2023/09/16 05:15:11;;;;;;;5.87;5.47;;;11.40;1.00;;;;;;5043085;28;20113;-89
2023/09/16 05:17:45;;;;;;;5.60;5.10;;;11.50;1.00;;;;;;5042733;28;20091;-89
2023/09/16 05:24:01;;;;;;;5.50;5.00;;;11.60;1.00;;;;;;5091363;28;20039;-89
2023/09/16 05:30:09;;;;;;;5.30;4.90;;;11.60;1.00;;;;;;5108271;28;20058;-89
2023/09/16 05:32:37;;;;;;;5.70;5.30;;;11.50;1.00;;;;;;5099242;28;20053;-89
2023/09/16 05:35:06;;;;;;;7.10;6.57;;;11.60;1.00;;;;;;5066274;28;20046;-88
2023/09/16 05:37:32;;;;;;;6.18;5.78;;;11.60;1.00;;;;;;5065908;28;20044;-89
2023/09/16 05:39:58;;;;;;;6.00;5.47;;;11.60;1.00;;;;;;5066009;28;20510;-88
2023/09/16 05:42:23;;;;;;;5.20;4.83;;;11.60;1.00;;;;;;5078717;28;20388;-88
2023/09/16 05:44:49;;;;;;;5.63;5.23;;;11.60;1.00;;;;;;5045850;28;20067;-88
2023/09/16 05:47:15;;;;;;;6.13;5.53;;;11.60;1.00;;;;;;5099326;28;20100;-89
2023/09/16 05:49:41;;;;;;;5.72;5.32;;;11.60;1.00;;;;;;5082118;28;20100;-89
2023/09/16 05:52:10;;;;;;;5.83;5.43;;;11.60;1.00;;;;;;5065149;28;20047;-88
2023/09/16 05:54:35;;;;;;;5.85;5.45;;;11.60;1.00;;;;;;5091613;28;20089;-88
2023/09/16 05:57:01;;;;;;;6.00;5.50;;;11.70;1.00;;;;;;5097212;27;20134;-87
2023/09/16 05:59:27;;;;;;;6.57;5.97;;;11.70;1.00;;;;;;5064602;28;20039;-87
2023/09/16 06:01:53;;;;;;;6.28;5.78;;;11.80;1.00;;;;;;5066186;28;20058;-87
2023/09/16 06:08:41;;;;;;;6.60;6.00;;;12.00;1.00;;;;;;5115759;28;20264;-87
2023/09/16 06:11:07;;;;;;;6.00;5.53;;;12.60;1.00;;;;;;5088507;27;20130;-85
2023/09/16 06:13:33;;;;;;;6.77;6.20;;;13.00;1.00;;;;;;5103139;28;20121;-84
2023/09/16 06:15:58;;;;;;;6.40;5.90;;;13.40;1.00;;;;;;5091139;27;20088;-83
2023/09/16 06:18:24;;;;;;;6.63;6.13;;;13.80;1.00;;;;;;5072330;27;20312;-85
2023/09/16 06:20:50;;;;;;;7.67;6.87;;;14.00;1.00;;;;;;5074390;28;20044;-86
2023/09/16 06:23:16;;;;;;;6.95;6.35;;;14.20;1.00;;;;;;5059987;28;20377;-85
2023/09/16 06:25:41;;;;;;;6.40;5.80;;;14.50;1.00;;;;;;5077209;28;20083;-84
2023/09/16 06:28:07;;;;;;;6.85;6.13;;;14.70;1.00;;;;;;5043540;28;20138;-85
2023/09/16 06:30:33;;;;;;;8.73;7.88;;;15.00;1.00;;;;;;5074466;28;20036;-84
2023/09/16 06:32:58;;;;;;;8.38;7.68;;;15.30;1.00;;;;;;5093474;28;20139;-85
2023/09/16 06:35:24;;;;;;;7.22;6.47;;;15.50;1.00;;;;;;5043728;28;20181;-84
2023/09/16 06:37:50;;;;;;;6.47;5.97;;;15.70;1.00;;;;;;5096531;28;20069;-82
2023/09/16 06:40:19;;;;;;;7.20;6.50;;;16.00;1.00;;;;;;5079630;28;20132;-84
2023/09/16 06:42:45;;;;;;;7.32;6.72;;;16.10;1.00;;;;;;5092733;28;20093;-83
2023/09/16 06:45:12;;;;;;;7.63;6.85;;;16.30;1.00;;;;;;5091915;28;20059;-84
2023/09/16 06:47:38;;;;;;;7.00;6.40;;;16.60;1.00;;;;;;5096318;28;20063;-84
2023/09/16 06:50:06;;;;;;;7.93;7.22;;;16.80;99.90;;;;;;5107053;27;20043;-85
2023/09/16 06:52:32;;;;;;;8.30;7.50;;;17.10;99.90;;;;;;5101691;28;20048;-85
2023/09/16 06:54:57;;;;;;;10.10;9.10;;;17.40;99.90;;;;;;5090475;28;20502;-84
2023/09/16 06:57:23;;;;;;;9.85;8.95;;;17.70;99.90;;;;;;5096925;28;20048;-85
2023/09/16 06:59:49;;;;;;;9.88;8.98;;;18.00;99.90;;;;;;5079471;27;20570;-86
2023/09/16 07:02:16;;;;;;;12.50;11.18;;;18.30;99.90;;;;;;5092668;28;20048;-85
2023/09/16 07:04:42;;;;;;;11.82;10.73;;;18.60;99.90;;;;;;5103539;27;20055;-85
2023/09/16 07:07:12;;;;;;;11.32;10.30;;;18.90;1.00;;;;;;5071782;28;20056;-85
2023/09/16 07:09:38;;;;;;;12.27;11.15;;;19.20;85.80;;;;;;5078825;28;20044;-85
2023/09/16 07:12:07;;;;;;;;;;;19.40;99.90;;;;;;5075805;28;20055;-86
2023/09/16 07:14:39;;;;;;;12.27;10.93;;;19.50;99.90;;;;;;5062283;28;19963;-86
2023/09/16 07:17:06;;;;;;;10.93;9.82;;;19.60;1.00;;;;;;5060073;28;20135;-84
2023/09/16 07:19:33;;;;;;;12.00;10.90;;;19.80;1.00;;;;;;5092177;28;20135;-85
2023/09/16 07:21:59;;;;;;;12.07;10.88;;;20.00;99.90;;;;;;5063894;28;20113;-85
2023/09/16 07:24:25;;;;;;;12.05;10.95;;;20.10;99.90;;;;;;5063902;28;20047;-86
2023/09/16 07:26:51;;;;;;;12.68;9.80;;;20.30;99.90;;;;;;5097553;28;20039;-87
2023/09/16 07:29:18;;;;;;;17.40;10.20;;;20.50;99.90;;;;;;5080142;28;20475;-84
2023/09/16 07:31:44;;;;;;;11.45;10.32;;;20.70;1.00;;;;;;5093543;28;20047;-84
2023/09/16 07:34:09;;;;;;;11.52;10.43;;;20.80;99.90;;;;;;5079513;28;20055;-84
2023/09/16 07:36:35;;;;;;;11.07;9.82;;;20.80;99.90;;;;;;5096307;28;20048;-87
2023/09/16 07:39:01;;;;;;;14.45;10.63;;;20.90;99.90;;;;;;5071855;28;20075;-89
2023/09/16 07:41:26;;;;;;;12.20;10.70;;;21.00;99.90;;;;;;5071418;28;20480;-88
2023/09/16 07:43:52;;;;;;;12.43;11.23;;;21.20;99.90;;;;;;5077456;28;20094;-88
2023/09/16 07:46:18;;;;;;;14.13;12.18;;;21.40;99.90;;;;;;5062076;28;20048;-87
2023/09/16 07:48:44;;;;;;;15.20;10.85;;;21.60;99.90;;;;;;5079914;27;20047;-88
2023/09/16 07:51:10;;;;;;;;;;;21.70;99.90;;;;;;5062894;28;20035;-89
2023/09/16 07:53:35;;;;;;;11.88;9.77;;;21.70;99.90;;;;;;5109572;27;20358;-85
2023/09/16 07:56:01;;;;;;;11.32;10.10;;;21.60;99.90;;;;;;5082378;27;20043;-88
2023/09/16 07:58:27;;;;;;;13.52;10.77;;;21.70;99.90;;;;;;5083233;28;20119;-87
2023/09/16 08:00:54;;;;;;;12.30;10.80;;;21.90;99.90;;;;;;5058394;28;20488;-88
2023/09/16 08:03:19;;;;;;;10.88;9.90;;;22.20;99.90;;;;;;5078769;27;20103;-86
2023/09/16 08:05:45;;;;;;;12.57;10.65;;;22.30;99.90;;;;;;5115824;27;20080;-86
2023/09/16 08:08:11;;;;;;;11.55;10.45;;;22.30;99.90;;;;;;5098784;27;20050;-86
2023/09/16 08:10:36;;;;;;;11.82;10.70;;;22.20;75.90;;;;;;5112977;27;20113;-86
2023/09/16 08:13:02;;;;;;;14.20;10.40;;;22.10;1.00;;;;;;5075072;27;20048;-87
2023/09/16 08:15:28;;;;;;;10.80;9.60;;;22.00;16.80;;;;;;5075976;28;20051;-86
2023/09/16 08:17:54;;;;;;;11.35;9.50;;;21.80;42.20;;;;;;5079601;28;20058;-85
2023/09/16 08:20:20;;;;;;;11.43;9.30;;;21.70;99.90;;;;;;5078908;27;20066;-87
2023/09/16 08:22:46;;;;;;;11.80;9.52;;;21.50;99.90;;;;;;5066790;28;20059;-86
2023/09/16 08:25:12;;;;;;;14.38;10.40;;;21.30;99.90;;;;;;5100672;28;20036;-86
2023/09/16 08:27:38;;;;;;;10.50;9.55;;;21.10;99.90;;;;;;5083552;27;20047;-85
2023/09/16 08:30:05;;;;;;;10.63;9.65;;;21.10;99.90;;;;;;5079324;28;20071;-85
2023/09/16 08:32:30;;;;;;;;;;;21.00;99.90;;;;;;5082613;28;20047;-87
2023/09/16 08:34:56;;;;;;;10.02;8.80;;;20.90;1.00;;;;;;5075017;28;19919;-87
2023/09/16 08:37:22;;;;;;;11.82;10.25;;;20.80;1.00;;;;;;5094342;28;20047;-87
2023/09/16 08:39:48;;;;;;;11.10;10.07;;;20.70;1.00;;;;;;5095755;28;20082;-87
2023/09/16 08:42:35;;;;;;;11.68;10.57;;;20.60;99.90;;;;;;5078308;28;20093;-87
2023/09/16 08:45:04;;;;;;;10.65;9.75;;;20.70;1.00;;;;;;5064658;28;20441;-86
2023/09/16 08:47:52;;;;;;;11.52;10.43;;;20.80;99.90;;;;;;5074457;28;20492;-87
2023/09/16 08:50:20;;;;;;;11.15;10.10;;;21.00;99.90;;;;;;5075006;28;20067;-87
2023/09/16 08:52:47;;;;;;;11.50;10.43;;;21.10;1.00;;;;;;5058908;28;20051;-87
2023/09/16 08:55:13;;;;;;;11.07;9.98;;;21.10;99.90;;;;;;5058194;28;20079;-87
2023/09/16 08:57:55;;;;;;;9.57;8.57;;;21.20;1.00;;;;;;5058331;28;20506;-86
2023/09/16 09:00:21;;;;;;;9.90;9.00;;;21.20;1.00;;;;;;5074932;28;20040;-87
2023/09/16 09:02:48;;;;;;;10.75;9.85;;;21.30;99.90;;;;;;5058825;28;20054;-86
2023/09/16 09:05:15;;;;;;;11.27;10.00;;;21.30;99.90;;;;;;5074823;28;20135;-87
2023/09/16 09:07:41;;;;;;;9.55;8.48;;;21.40;99.90;;;;;;5075366;28;20048;-86
2023/09/16 09:10:10;;;;;;;9.75;8.77;;;21.30;1.00;;;;;;5058322;28;20134;-87
2023/09/16 09:12:39;;;;;;;9.40;8.32;;;21.30;1.00;;;;;;5057390;28;20052;-87
2023/09/16 09:15:08;;;;;;;9.30;8.32;;;21.40;1.00;;;;;;5058320;28;20044;-87
2023/09/16 09:17:49;;;;;;;10.43;9.38;;;21.40;2.60;;;;;;5058422;28;20052;-87
2023/09/16 09:20:18;;;;;;;9.82;8.88;;;21.50;99.90;;;;;;5059545;28;20514;-88
2023/09/16 09:22:45;;;;;;;10.73;8.85;;;21.50;99.90;;;;;;5074988;28;20094;-87
2023/09/16 09:25:11;;;;;;;10.63;8.05;;;21.70;99.90;;;;;;5058050;28;20093;-87
2023/09/16 09:27:37;;;;;;;8.95;8.13;;;21.70;1.00;;;;;;5074530;28;20045;-87
2023/09/16 09:30:04;;;;;;;9.13;8.07;;;21.80;84.50;;;;;;5077632;28;20044;-87
2023/09/16 09:32:32;;;;;;;8.90;8.10;;;21.80;61.50;;;;;;5077806;28;20040;-87
2023/09/16 09:35:04;;;;;;;9.35;8.45;;;21.90;99.90;;;;;;5061812;28;20098;-87
2023/09/16 09:37:30;;;;;;;6.82;6.20;;;22.00;99.90;;;;;;5078240;28;20051;-87
2023/09/16 09:40:08;;;;;;;7.90;6.68;;;22.10;1.00;;;;;;5045289;28;20395;-87
2023/09/16 09:42:41;;;;;;;7.43;6.72;;;22.10;4.50;;;;;;5061305;28;20407;-87
2023/09/16 09:45:08;;;;;;;7.32;6.55;;;22.10;99.90;;;;;;5081557;28;20048;-87
2023/09/16 09:47:34;;;;;;;10.18;8.05;;;22.10;54.00;;;;;;5081940;28;20496;-87
2023/09/16 09:50:08;;;;;;;8.02;7.40;;;21.80;1.00;;;;;;5082209;28;20128;-86
2023/09/16 09:52:37;;;;;;;8.65;7.30;;;22.20;99.90;;;;;;5097778;28;20071;-87
2023/09/16 09:55:03;;;;;;;6.28;5.68;;;22.30;99.90;;;;;;5098323;28;20080;-87
2023/09/16 09:57:29;;;;;;;5.95;5.32;;;22.30;1.00;;;;;;5081117;28;20055;-87
2023/09/16 09:59:56;;;;;;;6.32;5.63;;;22.30;99.90;;;;;;5098655;28;20043;-87
2023/09/16 10:02:26;;;;;;;8.63;5.95;;;22.30;99.90;;;;;;5081948;28;20058;-88
2023/09/16 10:05:01;;;;;;;7.60;6.80;;;22.40;99.90;;;;;;5081994;28;20111;-87
2023/09/16 10:07:30;;;;;;;6.93;6.32;;;22.50;1.00;;;;;;5098285;28;20043;-87
2023/09/16 10:09:56;;;;;;;6.40;5.22;;;22.50;99.90;;;;;;5081622;28;20109;-87
2023/09/16 10:12:22;;;;;;;6.85;6.25;;;22.60;1.00;;;;;;5097263;28;20521;-88
2023/09/16 10:14:48;;;;;;;7.15;6.00;;;22.70;99.90;;;;;;5079270;28;20063;-87
2023/09/16 10:17:15;;;;;;;6.55;5.93;;;22.80;99.90;;;;;;5097938;28;20509;-87
2023/09/16 10:19:42;;;;;;;7.47;6.38;;;23.00;99.90;;;;;;5097501;28;20062;-87
2023/09/16 10:22:10;;;;;;;6.18;5.50;;;23.00;99.90;;;;;;5081068;28;20479;-87
2023/09/16 10:24:36;;;;;;;6.57;5.82;;;23.10;99.90;;;;;;5064216;28;20052;-87
2023/09/16 10:27:11;;;;;;;5.82;5.32;;;23.00;99.90;;;;;;5081103;28;20109;-87
2023/09/16 10:29:38;;;;;;;6.68;5.68;;;23.00;99.90;;;;;;5097464;28;20083;-87
2023/09/16 10:32:04;;;;;;;6.72;6.13;;;22.90;99.90;;;;;;5080577;28;20074;-87
2023/09/16 10:34:31;;;;;;;6.28;5.75;;;22.90;99.90;;;;;;5080303;28;20505;-87
2023/09/16 10:36:57;;;;;;;6.38;5.40;;;23.00;99.90;;;;;;5064407;28;20082;-86
2023/09/16 10:39:24;;;;;;;5.95;5.28;;;23.20;99.90;;;;;;5080741;28;20078;-87
2023/09/16 10:41:52;;;;;;;8.38;6.55;;;23.30;99.90;;;;;;5096970;28;20048;-87
2023/09/16 10:44:18;;;;;;;6.10;5.50;;;23.40;30.60;;;;;;5098285;28;20395;-87
2023/09/16 10:46:45;;;;;;;6.93;5.85;;;23.50;93.70;;;;;;5062874;28;20043;-87
2023/09/16 10:49:11;;;;;;;5.80;5.22;;;23.70;99.90;;;;;;5080127;28;20077;-87
2023/09/16 10:51:42;;;;;;;7.63;5.80;;;23.90;69.80;;;;;;5096415;28;20040;-87
2023/09/16 10:54:43;;;;;;;6.65;5.95;;;24.00;1.00;;;;;;5096911;28;20048;-87
2023/09/16 10:57:20;;;;;;;6.68;6.00;;;24.10;1.00;;;;;;5091563;28;20093;-86
2023/09/16 10:59:51;;;;;;;5.95;5.45;;;24.20;1.00;;;;;;5080546;28;20130;-86
2023/09/16 11:02:38;;;;;;;6.05;5.38;;;24.20;1.00;;;;;;5080327;28;20132;-86
2023/09/16 11:05:04;;;;;;;6.47;5.07;;;24.30;99.90;;;;;;5080496;28;20043;-87
2023/09/16 11:07:31;;;;;;;5.10;4.53;;;24.30;99.90;;;;;;5096588;28;20155;-87
2023/09/16 11:09:57;;;;;;;4.40;3.78;;;24.40;99.90;;;;;;5063361;28;20399;-87
2023/09/16 11:12:23;;;;;;;;;;;24.60;99.90;;;;;;5063426;28;20106;-86
2023/09/16 11:14:49;;;;;;;6.13;4.40;;;24.60;99.90;;;;;;5095846;28;20196;-87
2023/09/16 11:17:15;;;;;;;;;;;24.80;99.90;;;;;;5063936;28;20051;-87
2023/09/16 11:19:42;;;;;;;4.45;3.78;;;24.80;99.90;;;;;;5079837;28;19919;-87
2023/09/16 11:22:09;;;;;;;4.15;3.58;;;24.80;99.90;;;;;;5096893;28;20491;-87
2023/09/16 11:24:35;;;;;;;3.83;3.50;;;25.00;99.90;;;;;;5079973;28;20039;-87
2023/09/16 11:27:02;;;;;;;3.97;3.58;;;25.20;99.90;;;;;;5079524;28;20054;-86
2023/09/16 11:29:29;;;;;;;6.10;3.63;;;25.20;99.90;;;;;;5079829;28;20044;-87
2023/09/16 11:31:55;;;;;;;4.00;3.60;;;25.10;99.90;;;;;;5096028;28;20089;-87
2023/09/16 11:34:28;;;;;;;4.05;3.10;;;25.20;99.90;;;;;;5080038;28;20499;-87
2023/09/16 11:36:57;;;;;;;3.45;3.15;;;25.30;99.90;;;;;;5079495;28;20043;-87
2023/09/16 11:39:34;;;;;;;6.80;3.25;;;25.40;99.90;;;;;;5079307;28;20066;-87
2023/09/16 11:42:00;;;;;;;6.88;3.80;;;25.60;99.90;;;;;;5096542;28;20051;-87
2023/09/16 11:44:27;;;;;;;;;;;25.70;99.90;;;;;;5096536;28;20040;-87
2023/09/16 11:46:54;;;;;;;4.00;2.83;;;25.60;99.90;;;;;;5075364;28;20321;-87
2023/09/16 11:49:20;;;;;;;2.78;2.50;;;25.70;99.90;;;;;;5075918;28;20048;-87
2023/09/16 11:51:51;;;;;;;3.30;2.80;;;25.80;99.90;;;;;;5075239;28;20091;-87
2023/09/16 11:54:17;;;;;;;3.03;2.72;;;26.00;99.90;;;;;;5076173;28;20044;-86
2023/09/16 11:56:44;;;;;;;2.60;2.40;;;26.20;99.90;;;;;;5075434;28;20105;-87
2023/09/16 11:59:11;;;;;;;3.35;2.50;;;26.20;99.90;;;;;;5059156;28;20454;-87
2023/09/16 12:01:40;;;;;;;2.58;2.20;;;26.30;99.90;;;;;;5058835;28;20142;-88
2023/09/16 12:04:08;;;;;;;11.50;2.90;;;26.10;92.10;;;;;;5075990;28;20040;-87
2023/09/16 12:06:35;;;;;;;4.00;1.90;;;26.00;58.20;;;;;;5058998;28;20060;-87
2023/09/16 12:09:03;;;;;;;2.35;2.00;;;26.00;69.10;;;;;;5058662;28;20088;-87
2023/09/16 12:11:31;;;;;;;2.42;1.90;;;26.10;63.30;;;;;;5059177;28;20052;-87
2023/09/16 12:13:58;;;;;;;2.08;1.58;;;26.00;50.80;;;;;;5058154;28;20139;-87
2023/09/16 12:16:24;;;;;;;2.55;1.80;;;25.80;40.70;;;;;;5061080;28;20087;-87
2023/09/16 12:18:50;;;;;;;;;;;25.80;36.60;;;;;;5075729;28;20215;-87
2023/09/16 12:21:16;;;;;;;1.92;1.80;;;25.80;38.60;;;;;;5058651;28;19924;-87
2023/09/16 12:23:42;;;;;;;;;;;25.80;41.30;;;;;;5042470;28;20138;-87
2023/09/16 12:26:09;;;;;;;9.02;3.35;;;25.90;41.70;;;;;;5058997;28;19920;-87
2023/09/16 12:28:34;;;;;;;3.28;2.65;;;25.90;64.00;;;;;;5058622;28;20044;-87
2023/09/16 12:31:00;;;;;;;;;;;25.90;50.80;;;;;;5059020;28;20139;-87
2023/09/16 12:33:40;;;;;;;3.70;2.67;;;26.00;58.60;;;;;;5075278;28;20291;-87
2023/09/16 12:36:07;;;;;;;5.35;2.85;;;26.10;50.00;;;;;;5041961;28;20040;-87
2023/09/16 12:38:35;;;;;;;2.65;2.45;;;26.10;46.40;;;;;;5041924;28;20043;-87
2023/09/16 12:41:02;;;;;;;4.45;2.83;;;26.10;50.70;;;;;;5074861;28;20094;-87
2023/09/16 12:43:29;;;;;;;15.63;4.80;;;26.20;45.50;;;;;;5075245;28;20131;-87
2023/09/16 12:45:56;;;;;;;4.22;3.15;;;26.20;45.30;;;;;;5047120;28;20052;-87
2023/09/16 12:48:22;;;;;;;4.00;2.65;;;26.30;44.10;;;;;;5058694;28;20052;-86
2023/09/16 12:50:48;;;;;;;;;;;26.20;44.40;;;;;;5041908;28;20052;-87
2023/09/16 12:53:14;;;;;;;3.60;2.72;;;26.30;51.20;;;;;;5074951;28;20360;-87
2023/09/16 12:55:39;;;;;;;;;;;26.40;51.10;;;;;;5058781;28;20438;-87
2023/09/16 12:58:07;;;;;;;4.32;3.13;;;26.50;49.80;;;;;;5074684;28;20378;-87
2023/09/16 13:00:33;;;;;;;4.30;3.15;;;26.40;52.30;;;;;;5058418;28;20040;-87
2023/09/16 13:03:00;;;;;;;;;;;26.30;47.50;;;;;;5075236;28;20544;-87
2023/09/16 13:05:29;;;;;;;5.80;3.22;;;26.30;51.30;;;;;;5078207;28;19978;-87
2023/09/16 13:07:59;;;;;;;2.85;2.65;;;26.30;54.20;;;;;;5045757;28;20047;-87
2023/09/16 13:10:26;;;;;;;4.40;3.10;;;26.40;53.10;;;;;;5062241;28;20101;-87
2023/09/16 13:12:51;;;;;;;2.80;2.50;;;26.40;47.90;;;;;;5061424;28;20128;-87
2023/09/16 13:15:21;;;;;;;;;;;26.40;45.40;;;;;;5070065;28;20044;-87
2023/09/16 13:17:59;;;;;;;2.75;2.55;;;26.50;48.00;;;;;;5063351;28;19920;-89
2023/09/16 13:20:36;;;;;;;3.17;2.45;;;26.40;34.60;;;;;;5081614;28;20047;-87
2023/09/16 13:23:02;;;;;;;2.78;2.47;;;26.40;34.60;;;;;;5062464;28;20044;-87
2023/09/16 13:25:40;;;;;;;3.03;2.70;;;26.40;33.60;;;;;;5063651;28;20071;-86
2023/09/16 13:28:16;;;;;;;2.70;2.50;;;26.40;31.80;;;;;;5063060;28;20082;-87
2023/09/16 13:30:48;;;;;;;2.70;2.50;;;26.50;29.90;;;;;;5079292;28;20052;-87
2023/09/16 13:33:14;;;;;;;6.95;2.92;;;27.10;29.90;;;;;;5078664;28;20044;-86
2023/09/16 13:35:42;;;;;;;3.25;2.95;;;26.40;28.70;;;;;;5045357;28;20097;-87